createdAt,value
2022-08-17T00:01:45.527Z,99.90
2022-08-17T00:04:19.183Z,99.90
2022-08-17T00:06:46.137Z,99.90
2022-08-17T00:09:18.266Z,99.90
2022-08-17T00:12:40.598Z,99.90
2022-08-17T00:14:33.275Z,99.90
2022-08-17T00:17:00.012Z,99.90
2022-08-17T00:19:26.952Z,99.90
2022-08-17T00:22:31.670Z,99.90
2022-08-17T00:24:44.172Z,99.90
2022-08-17T00:27:10.913Z,99.90
2022-08-17T00:29:37.609Z,99.90
2022-08-17T00:33:12.227Z,99.90
2022-08-17T00:34:51.471Z,99.90
2022-08-17T00:37:18.120Z,99.90
2022-08-17T00:39:44.805Z,99.90
2022-08-17T00:42:16.894Z,99.90
2022-08-17T00:44:44.600Z,99.90
2022-08-17T00:47:11.278Z,99.90
2022-08-17T00:49:37.934Z,99.90
2022-08-17T00:52:15.598Z,99.90
2022-08-17T00:54:46.860Z,99.90
2022-08-17T00:57:21.015Z,99.90
2022-08-17T01:00:01.646Z,99.90
2022-08-17T01:02:51.741Z,99.90
2022-08-17T01:05:24.081Z,99.90
2022-08-17T01:07:53.571Z,99.90
2022-08-17T01:11:00.534Z,99.90
2022-08-17T01:13:14.627Z,99.90
2022-08-17T01:15:52.100Z,99.90
2022-08-17T01:18:18.976Z,99.90
2022-08-17T01:20:49.919Z,99.90
2022-08-17T01:23:20.751Z,99.90
2022-08-17T01:25:53.930Z,99.90
2022-08-17T01:28:52.449Z,99.90
2022-08-17T01:31:08.992Z,99.90
2022-08-17T01:33:36.007Z,99.90
2022-08-17T01:36:04.102Z,99.90
2022-08-17T01:38:31.801Z,99.90
2022-08-17T01:41:06.875Z,99.90
2022-08-17T01:43:47.792Z,99.90
2022-08-17T01:46:21.010Z,99.90
2022-08-17T01:48:48.382Z,99.90
2022-08-17T01:51:16.009Z,99.90
2022-08-17T01:53:47.273Z,99.90
2022-08-17T01:56:17.314Z,99.90
2022-08-17T01:58:44.453Z,99.90
2022-08-17T02:01:14.057Z,99.90
2022-08-17T02:03:41.400Z,99.90
2022-08-17T02:06:27.783Z,99.90
2022-08-17T02:09:03.134Z,99.90
2022-08-17T02:11:33.662Z,99.90
2022-08-17T02:14:03.251Z,99.90
2022-08-17T02:16:36.636Z,99.90
2022-08-17T02:19:07.865Z,99.90
2022-08-17T02:21:35.793Z,99.90
2022-08-17T02:24:04.404Z,99.90
2022-08-17T02:26:31.816Z,99.90
2022-08-17T02:28:58.491Z,99.90
2022-08-17T02:31:25.317Z,99.90
2022-08-17T02:33:56.662Z,99.90
2022-08-17T02:36:31.800Z,99.90
2022-08-17T02:38:58.642Z,99.90
2022-08-17T02:41:25.533Z,99.90
2022-08-17T02:43:53.090Z,99.90
2022-08-17T02:46:19.822Z,99.90
2022-08-17T02:51:28.378Z,99.90
2022-08-17T02:54:05.296Z,99.90
2022-08-17T02:56:42.341Z,99.90
2022-08-17T02:59:09.034Z,99.90
2022-08-17T03:01:35.791Z,99.90
2022-08-17T03:04:02.703Z,99.90
2022-08-17T03:06:29.573Z,99.90
2022-08-17T03:08:56.194Z,99.90
2022-08-17T03:11:23.480Z,99.90
2022-08-17T03:13:51.020Z,99.90
2022-08-17T03:16:17.752Z,99.90
2022-08-17T03:18:44.373Z,99.90
2022-08-17T03:21:11.020Z,99.90
2022-08-17T03:23:42.073Z,99.90
2022-08-17T03:26:15.256Z,99.90
2022-08-17T03:28:42.128Z,99.90
2022-08-17T03:31:08.763Z,99.90
2022-08-17T03:33:35.447Z,99.90
2022-08-17T03:36:02.094Z,99.90
2022-08-17T03:38:28.785Z,99.90
2022-08-17T03:41:06.964Z,99.90
2022-08-17T03:43:34.566Z,99.90
2022-08-17T03:46:29.009Z,99.90
2022-08-17T03:49:20.971Z,99.90
2022-08-17T03:52:06.205Z,99.90
2022-08-17T03:54:51.375Z,99.90
2022-08-17T03:57:19.035Z,99.90
2022-08-17T03:59:45.886Z,99.90
2022-08-17T04:02:24.255Z,99.90
2022-08-17T04:04:52.076Z,99.90
2022-08-17T04:07:20.380Z,99.90
2022-08-17T04:09:47.564Z,99.90
2022-08-17T04:12:19.724Z,99.90
2022-08-17T04:14:53.588Z,99.90
2022-08-17T04:17:26.238Z,99.90
2022-08-17T04:19:53.684Z,99.90
2022-08-17T04:22:32.136Z,99.90
2022-08-17T04:25:02.048Z,99.90
2022-08-17T04:27:28.686Z,99.90
2022-08-17T04:29:56.136Z,99.90
2022-08-17T04:33:00.852Z,99.90
2022-08-17T04:35:09.884Z,99.90
2022-08-17T04:37:36.625Z,99.90
2022-08-17T04:40:22.541Z,99.90
2022-08-17T04:43:10.773Z,99.90
2022-08-17T04:45:55.096Z,99.90
2022-08-17T04:48:29.770Z,99.90
2022-08-17T04:51:05.792Z,99.90
2022-08-17T04:53:32.533Z,99.90
2022-08-17T04:55:59.310Z,99.90
2022-08-17T04:58:26.091Z,99.90
2022-08-17T05:00:53.189Z,99.90
2022-08-17T05:03:19.915Z,99.90
2022-08-17T05:05:49.662Z,99.90
2022-08-17T05:08:18.563Z,99.90
2022-08-17T05:10:45.987Z,99.90
2022-08-17T05:13:18.802Z,99.90
2022-08-17T05:15:47.776Z,99.90
2022-08-17T05:18:16.640Z,99.90
2022-08-17T05:20:44.357Z,99.90
2022-08-17T05:23:14.868Z,99.90
2022-08-17T05:25:46.231Z,99.90
2022-08-17T05:28:15.167Z,99.90
2022-08-17T05:30:43.842Z,99.90
2022-08-17T05:33:19.442Z,99.90
2022-08-17T05:35:49.512Z,99.90
2022-08-17T05:38:18.016Z,99.90
2022-08-17T05:40:44.987Z,99.90
2022-08-17T05:43:14.193Z,99.90
2022-08-17T05:45:56.753Z,99.90
2022-08-17T05:48:39.100Z,99.90
2022-08-17T05:51:27.523Z,99.90
2022-08-17T05:54:15.456Z,99.90
2022-08-17T05:57:17.400Z,99.90
2022-08-17T06:00:10.325Z,99.90
2022-08-17T06:02:47.879Z,99.90
2022-08-17T06:05:51.421Z,99.90
2022-08-17T06:08:48.046Z,99.90
2022-08-17T06:11:26.693Z,99.90
2022-08-17T06:14:30.537Z,99.90
2022-08-17T06:17:04.468Z,99.90
2022-08-17T06:19:47.292Z,99.90
2022-08-17T06:22:18.176Z,99.90
2022-08-17T06:24:54.058Z,99.90
2022-08-17T06:27:41.308Z,99.90
2022-08-17T06:30:14.150Z,99.90
2022-08-17T06:32:45.041Z,99.90
2022-08-17T06:35:15.451Z,99.90
2022-08-17T06:38:09.362Z,99.90
2022-08-17T06:41:12.263Z,99.90
2022-08-17T06:44:09.950Z,99.90
2022-08-17T06:46:56.187Z,99.90
2022-08-17T06:49:28.517Z,99.90
2022-08-17T06:52:45.591Z,99.90
2022-08-17T06:55:27.516Z,99.90
2022-08-17T06:58:05.860Z,99.90
2022-08-17T07:00:46.907Z,99.90
2022-08-17T07:03:37.943Z,99.90
2022-08-17T07:06:15.667Z,99.90
2022-08-17T07:09:15.339Z,99.90
2022-08-17T07:11:56.390Z,99.90
2022-08-17T07:14:36.418Z,99.90
2022-08-17T07:17:09.374Z,99.90
2022-08-17T07:19:41.010Z,99.90
2022-08-17T07:22:57.456Z,99.90
2022-08-17T07:25:21.296Z,99.90
2022-08-17T07:27:54.277Z,99.90
2022-08-17T07:30:47.081Z,99.90
2022-08-17T07:33:23.677Z,99.90
2022-08-17T07:35:50.695Z,99.90
2022-08-17T07:38:31.737Z,99.90
2022-08-17T07:41:02.084Z,99.90
2022-08-17T07:43:33.983Z,99.90
2022-08-17T07:46:38.396Z,99.90
2022-08-17T07:49:06.646Z,99.90
2022-08-17T07:51:52.949Z,99.90
2022-08-17T07:54:22.669Z,99.90
2022-08-17T07:57:00.434Z,99.90
2022-08-17T07:59:33.356Z,99.90
2022-08-17T08:02:02.265Z,99.90
2022-08-17T08:05:00.459Z,99.90
2022-08-17T08:07:34.578Z,99.90
2022-08-17T08:10:05.941Z,99.90
2022-08-17T08:12:39.225Z,99.90
2022-08-17T08:15:19.151Z,99.90
2022-08-17T08:17:54.029Z,99.90
2022-08-17T08:20:52.387Z,99.90
2022-08-17T08:23:30.547Z,99.90
2022-08-17T08:26:42.231Z,99.90
2022-08-17T08:29:28.489Z,99.90
2022-08-17T08:32:10.953Z,99.90
2022-08-17T08:35:01.617Z,99.90
2022-08-17T08:37:58.463Z,99.90
2022-08-17T08:40:35.130Z,99.90
2022-08-17T08:43:24.373Z,99.90
2022-08-17T08:46:20.550Z,99.90
2022-08-17T08:49:33.858Z,99.90
2022-08-17T08:53:02.529Z,99.90
2022-08-17T08:56:00.847Z,99.90
2022-08-17T08:58:50.397Z,99.90
2022-08-17T09:01:29.405Z,99.90
2022-08-17T09:04:27.102Z,99.90
2022-08-17T09:07:23.609Z,99.90
2022-08-17T09:10:05.399Z,99.90
2022-08-17T09:12:54.942Z,99.90
2022-08-17T09:15:39.982Z,99.90
2022-08-17T09:19:02.551Z,99.90
2022-08-17T09:21:33.716Z,99.90
2022-08-17T09:24:15.686Z,99.90
2022-08-17T09:27:26.390Z,99.90
2022-08-17T09:30:01.581Z,99.90
2022-08-17T09:32:39.099Z,99.90
2022-08-17T09:35:37.440Z,99.90
2022-08-17T09:38:40.453Z,99.90
2022-08-17T09:41:21.600Z,99.90
2022-08-17T09:44:22.527Z,99.90
2022-08-17T09:47:13.346Z,99.90
2022-08-17T09:49:42.440Z,99.90
2022-08-17T09:52:15.539Z,99.90
2022-08-17T09:54:47.049Z,99.90
2022-08-17T09:57:31.845Z,99.90
2022-08-17T10:00:16.506Z,99.90
2022-08-17T10:03:03.222Z,99.90
2022-08-17T10:05:56.951Z,99.90
2022-08-17T10:08:30.243Z,99.90
2022-08-17T10:11:27.946Z,99.90
2022-08-17T10:14:37.929Z,99.90
2022-08-17T10:17:22.258Z,99.90
2022-08-17T10:20:16.882Z,99.90
2022-08-17T10:23:15.305Z,99.90
2022-08-17T10:26:14.791Z,99.90
2022-08-17T10:28:59.215Z,99.90
2022-08-17T10:31:48.951Z,99.90
2022-08-17T10:34:47.961Z,99.90
2022-08-17T10:38:00.769Z,99.90
2022-08-17T10:41:05.812Z,99.90
2022-08-17T10:44:39.609Z,99.80
2022-08-17T10:47:02.573Z,99.40
2022-08-17T10:49:55.891Z,99.70
2022-08-17T10:52:28.633Z,98.30
2022-08-17T10:54:58.717Z,96.40
2022-08-17T10:57:57.001Z,95.60
2022-08-17T11:00:35.800Z,95.50
2022-08-17T11:03:17.929Z,93.90
2022-08-17T11:06:32.580Z,94.70
2022-08-17T11:09:23.118Z,95.30
2022-08-17T11:12:03.907Z,93.80
2022-08-17T11:15:02.291Z,93.50
2022-08-17T11:17:49.649Z,93.30
2022-08-17T11:20:41.981Z,93.00
2022-08-17T11:23:08.967Z,92.20
2022-08-17T11:26:19.494Z,91.60
2022-08-17T11:28:53.475Z,91.60
2022-08-17T11:31:46.298Z,92.20
2022-08-17T11:34:22.958Z,91.50
2022-08-17T11:37:31.828Z,91.70
2022-08-17T11:43:21.257Z,90.80
2022-08-17T11:46:22.588Z,89.50
2022-08-17T11:49:29.193Z,88.70
2022-08-17T11:52:17.263Z,87.80
2022-08-17T11:54:46.729Z,88.10
2022-08-17T11:57:27.048Z,88.00
2022-08-17T12:00:32.611Z,90.20
2022-08-17T12:03:33.458Z,90.20
2022-08-17T12:06:29.667Z,87.00
2022-08-17T12:09:21.084Z,86.40
2022-08-17T12:12:12.361Z,85.90
2022-08-17T12:15:08.780Z,84.50
2022-08-17T12:17:41.669Z,83.70
2022-08-17T12:20:25.573Z,83.70
2022-08-17T12:23:07.133Z,83.20
2022-08-17T12:26:05.860Z,83.10
2022-08-17T12:28:36.259Z,87.10
2022-08-17T12:31:07.350Z,86.50
2022-08-17T12:33:37.088Z,83.90
2022-08-17T12:36:09.495Z,86.30
2022-08-17T12:38:38.634Z,81.70
2022-08-17T12:41:26.435Z,81.40
2022-08-17T12:44:02.590Z,83.10
2022-08-17T12:46:34.875Z,84.60
2022-08-17T12:49:18.776Z,86.10
2022-08-17T12:51:48.972Z,85.00
2022-08-17T12:54:41.324Z,85.30
2022-08-17T12:57:15.913Z,82.50
2022-08-17T12:59:49.086Z,81.80
2022-08-17T13:02:32.605Z,81.70
2022-08-17T13:05:01.735Z,81.80
2022-08-17T13:07:36.291Z,81.20
2022-08-17T13:10:04.274Z,81.00
2022-08-17T13:12:35.035Z,80.90
2022-08-17T13:15:02.653Z,82.50
2022-08-17T13:17:34.722Z,83.20
2022-08-17T13:20:05.818Z,81.60
2022-08-17T13:22:32.825Z,82.40
2022-08-17T13:25:07.607Z,83.20
2022-08-17T13:27:34.695Z,83.70
2022-08-17T13:30:08.170Z,84.40
2022-08-17T13:32:48.719Z,84.70
2022-08-17T13:35:41.096Z,84.90
2022-08-17T13:38:10.674Z,84.60
2022-08-17T13:40:42.564Z,84.30
2022-08-17T13:43:10.611Z,84.70
2022-08-17T13:45:50.799Z,85.20
2022-08-17T13:48:30.794Z,85.40
2022-08-17T13:50:57.631Z,85.10
2022-08-17T13:53:24.419Z,85.10
2022-08-17T13:55:56.166Z,85.40
2022-08-17T13:58:46.204Z,86.10
2022-08-17T14:01:53.522Z,85.50
2022-08-17T14:04:24.384Z,85.60
2022-08-17T14:06:53.363Z,85.10
2022-08-17T14:09:25.464Z,84.70
2022-08-17T14:11:54.428Z,84.40
2022-08-17T14:14:23.253Z,84.60
2022-08-17T14:16:51.990Z,84.40
2022-08-17T14:19:22.029Z,83.30
2022-08-17T14:21:49.245Z,82.30
2022-08-17T14:24:26.898Z,83.00
2022-08-17T14:26:56.702Z,82.00
2022-08-17T14:29:25.921Z,82.40
2022-08-17T14:31:54.169Z,81.60
2022-08-17T14:34:24.329Z,81.80
2022-08-17T14:36:52.111Z,81.50
2022-08-17T14:39:19.477Z,81.60
2022-08-17T14:41:46.379Z,82.80
2022-08-17T14:44:13.439Z,83.50
2022-08-17T14:46:44.791Z,84.60
2022-08-17T14:49:13.231Z,87.80
2022-08-17T14:51:44.220Z,88.70
2022-08-17T14:54:29.415Z,90.00
2022-08-17T14:57:22.764Z,90.10
2022-08-17T14:59:54.707Z,90.30
2022-08-17T15:02:29.738Z,90.40
2022-08-17T15:05:04.633Z,90.80
2022-08-17T15:07:31.869Z,90.80
2022-08-17T15:10:02.662Z,90.60
2022-08-17T15:12:34.108Z,90.90
2022-08-17T15:15:04.771Z,91.20
2022-08-17T15:17:44.519Z,91.30
2022-08-17T15:20:25.371Z,91.50
2022-08-17T15:22:56.076Z,91.70
2022-08-17T15:25:31.430Z,91.60
2022-08-17T15:27:59.421Z,91.60
2022-08-17T15:30:27.212Z,91.50
2022-08-17T15:32:56.692Z,91.60
2022-08-17T15:35:27.359Z,91.40
2022-08-17T15:37:57.960Z,91.50
2022-08-17T15:40:25.271Z,91.50
2022-08-17T15:42:52.948Z,91.50
2022-08-17T15:45:24.896Z,91.50
2022-08-17T15:47:52.957Z,91.50
2022-08-17T15:50:20.155Z,91.30
2022-08-17T15:52:47.637Z,91.00
2022-08-17T15:55:15.425Z,91.00
2022-08-17T15:57:42.908Z,91.30
2022-08-17T16:00:10.643Z,91.70
2022-08-17T16:03:45.010Z,92.00
2022-08-17T16:05:28.156Z,92.00
2022-08-17T16:07:58.758Z,92.20
2022-08-17T16:10:35.303Z,92.20
2022-08-17T16:13:04.324Z,92.10
2022-08-17T16:15:32.056Z,91.80
2022-08-17T16:17:59.257Z,92.00
2022-08-17T16:20:26.306Z,91.90
2022-08-17T16:22:54.563Z,91.90
2022-08-17T16:25:53.041Z,91.90
2022-08-17T16:28:17.657Z,91.90
2022-08-17T16:30:44.691Z,91.90
2022-08-17T16:33:12.740Z,91.70
2022-08-17T16:35:39.912Z,91.90
2022-08-17T16:38:07.421Z,92.00
2022-08-17T16:40:36.186Z,91.90
2022-08-17T16:43:04.562Z,91.60
2022-08-17T16:45:40.483Z,91.60
2022-08-17T16:48:08.991Z,91.80
2022-08-17T16:50:36.582Z,91.80
2022-08-17T16:53:17.175Z,91.90
2022-08-17T16:55:45.857Z,92.00
2022-08-17T16:58:13.151Z,92.10
2022-08-17T17:00:42.009Z,92.50
2022-08-17T17:03:21.856Z,92.60
2022-08-17T17:06:18.703Z,92.70
2022-08-17T17:08:59.061Z,92.70
2022-08-17T17:11:42.601Z,92.80
2022-08-17T17:14:30.511Z,93.00
2022-08-17T17:17:05.191Z,93.00
2022-08-17T17:19:36.586Z,93.10
2022-08-17T17:23:01.402Z,93.20
2022-08-17T17:25:32.534Z,93.40
2022-08-17T17:28:42.635Z,93.50
2022-08-17T17:31:23.826Z,93.70
2022-08-17T17:33:56.397Z,93.80
2022-08-17T17:36:47.360Z,93.90
2022-08-17T17:39:54.097Z,93.90
2022-08-17T17:42:24.639Z,93.90
2022-08-17T17:45:05.070Z,94.00
2022-08-17T17:47:33.079Z,94.00
2022-08-17T17:50:02.060Z,94.00
2022-08-17T17:52:41.106Z,94.00
2022-08-17T17:55:15.869Z,94.00
2022-08-17T17:58:09.051Z,94.10
2022-08-17T18:00:52.365Z,94.20
2022-08-17T18:03:24.922Z,94.30
2022-08-17T18:06:28.157Z,94.30
2022-08-17T18:09:08.726Z,94.50
2022-08-17T18:11:44.180Z,94.50
2022-08-17T18:14:42.223Z,94.60
2022-08-17T18:17:09.128Z,94.70
2022-08-17T18:19:40.006Z,94.80
2022-08-17T18:22:15.027Z,94.80
2022-08-17T18:25:05.672Z,94.80
2022-08-17T18:27:49.513Z,94.90
2022-08-17T18:30:20.255Z,94.90
2022-08-17T18:32:47.669Z,94.90
2022-08-17T18:35:14.534Z,95.10
2022-08-17T18:37:49.020Z,95.10
2022-08-17T18:40:21.475Z,95.20
2022-08-17T18:43:00.511Z,95.20
2022-08-17T18:45:43.898Z,95.10
2022-08-17T18:48:48.553Z,95.10
2022-08-17T18:51:43.012Z,95.00
2022-08-17T18:54:25.071Z,94.90
2022-08-17T18:57:02.159Z,94.90
2022-08-17T18:59:39.104Z,95.00
2022-08-17T19:02:18.679Z,95.00
2022-08-17T19:05:17.297Z,95.00
2022-08-17T19:07:46.985Z,95.10
2022-08-17T19:10:19.958Z,95.30
2022-08-17T19:13:00.727Z,95.40
2022-08-17T19:15:35.539Z,95.40
2022-08-17T19:18:25.834Z,95.70
2022-08-17T19:21:07.773Z,95.70
2022-08-17T19:24:04.484Z,95.90
2022-08-17T19:26:53.375Z,96.00
2022-08-17T19:29:29.774Z,96.10
2022-08-17T19:32:02.543Z,96.20
2022-08-17T19:34:37.292Z,96.20
2022-08-17T19:37:31.532Z,96.10
2022-08-17T19:40:48.892Z,96.10
2022-08-17T19:43:21.151Z,96.30
2022-08-17T19:46:29.388Z,96.40
2022-08-17T19:49:09.506Z,96.80
2022-08-17T19:51:59.198Z,97.10
2022-08-17T19:54:40.617Z,97.60
2022-08-17T19:57:20.065Z,97.50
2022-08-17T20:00:17.473Z,97.50
2022-08-17T20:02:55.315Z,97.70
2022-08-17T20:06:08.815Z,97.80
2022-08-17T20:08:38.043Z,97.90
2022-08-17T20:11:20.412Z,97.70
2022-08-17T20:14:10.455Z,97.90
2022-08-17T20:16:37.659Z,98.30
2022-08-17T20:19:23.114Z,98.40
2022-08-17T20:22:04.207Z,98.60
2022-08-17T20:24:58.550Z,98.70
2022-08-17T20:27:31.803Z,98.90
2022-08-17T20:30:01.746Z,99.00
2022-08-17T20:32:52.631Z,99.10
2022-08-17T20:35:40.321Z,99.20
2022-08-17T20:38:39.534Z,99.10
2022-08-17T20:41:15.499Z,99.10
2022-08-17T20:43:47.146Z,99.20
2022-08-17T20:46:38.986Z,99.20
2022-08-17T20:49:14.940Z,99.40
2022-08-17T20:52:00.734Z,99.70
2022-08-17T20:54:44.492Z,99.90
2022-08-17T20:57:33.196Z,99.90
2022-08-17T21:00:14.213Z,99.90
2022-08-17T21:02:46.726Z,99.90
2022-08-17T21:05:34.552Z,99.90
2022-08-17T21:08:16.628Z,99.90
2022-08-17T21:10:46.533Z,99.90
2022-08-17T21:13:15.507Z,99.90
2022-08-17T21:15:54.641Z,99.90
2022-08-17T21:18:45.937Z,99.90
2022-08-17T21:21:31.786Z,99.90
2022-08-17T21:24:19.654Z,99.90
2022-08-17T21:27:30.299Z,99.90
2022-08-17T21:30:06.631Z,99.90
2022-08-17T21:32:40.496Z,99.90
2022-08-17T21:35:12.584Z,99.90
2022-08-17T21:37:44.445Z,99.90
2022-08-17T21:40:11.308Z,99.90
2022-08-17T21:42:46.547Z,99.90
2022-08-17T21:45:22.698Z,99.90
2022-08-17T21:47:52.010Z,99.90
2022-08-17T21:50:24.203Z,99.90
2022-08-17T21:52:55.903Z,99.90
2022-08-17T21:55:30.445Z,99.90
2022-08-17T21:58:14.765Z,99.90
2022-08-17T22:00:44.635Z,99.90
2022-08-17T22:03:24.330Z,99.90
2022-08-17T22:05:51.579Z,99.90
2022-08-17T22:08:22.094Z,99.90
2022-08-17T22:10:51.255Z,99.90
2022-08-17T22:13:18.289Z,99.90
2022-08-17T22:15:50.936Z,99.90
2022-08-17T22:18:27.192Z,99.90
2022-08-17T22:20:56.721Z,99.90
2022-08-17T22:23:46.236Z,99.90
2022-08-17T22:26:15.587Z,99.90
2022-08-17T22:28:42.540Z,99.90
2022-08-17T22:31:13.261Z,99.90
2022-08-17T22:33:46.891Z,99.90
2022-08-17T22:36:40.385Z,99.90
2022-08-17T22:39:08.331Z,99.90
2022-08-17T22:41:41.518Z,99.90
2022-08-17T22:44:14.082Z,99.90
2022-08-17T22:46:51.873Z,99.90
2022-08-17T22:49:29.286Z,99.90
2022-08-17T22:52:06.572Z,99.90
2022-08-17T22:54:52.626Z,99.90
2022-08-17T22:57:41.782Z,99.90
2022-08-17T23:00:39.393Z,99.90
2022-08-17T23:03:12.538Z,99.90
2022-08-17T23:05:42.965Z,99.90
2022-08-17T23:08:11.548Z,99.90
2022-08-17T23:10:42.387Z,99.90
2022-08-17T23:13:11.989Z,99.90
2022-08-17T23:15:40.999Z,99.90
2022-08-17T23:18:07.976Z,99.90
2022-08-17T23:20:37.253Z,99.90
2022-08-17T23:23:06.820Z,99.90
2022-08-17T23:25:35.101Z,99.90
2022-08-17T23:28:05.038Z,99.90
2022-08-17T23:30:35.475Z,99.90
2022-08-17T23:33:06.574Z,99.90
2022-08-17T23:35:39.868Z,99.90
2022-08-17T23:38:12.853Z,99.90
2022-08-17T23:40:40.870Z,99.90
2022-08-17T23:43:23.623Z,99.90
2022-08-17T23:45:58.535Z,99.90
2022-08-17T23:48:35.016Z,99.90
2022-08-17T23:51:10.635Z,99.90
2022-08-17T23:53:42.209Z,99.90
2022-08-17T23:56:11.187Z,99.90
2022-08-17T23:58:43.472Z,99.90
